sensor_id;sensor_type;location;lat;lon;timestamp;temperature;humidity
36690;DHT22;22676;51.120;3.702;2022-08-14T04:33:56;26.70;41.60
36690;DHT22;22676;51.120;3.702;2022-08-14T04:36:47;26.70;41.70
36690;DHT22;22676;51.120;3.702;2022-08-14T04:39:37;26.70;41.70
36690;DHT22;22676;51.120;3.702;2022-08-14T04:42:28;26.70;41.70
36690;DHT22;22676;51.120;3.702;2022-08-14T04:45:21;26.60;41.60
36690;DHT22;22676;51.120;3.702;2022-08-14T04:48:12;26.70;41.70
36690;DHT22;22676;51.120;3.702;2022-08-14T04:51:04;26.60;41.70
36690;DHT22;22676;51.120;3.702;2022-08-14T04:53:56;26.60;41.60
36690;DHT22;22676;51.120;3.702;2022-08-14T04:56:46;26.60;41.60
36690;DHT22;22676;51.120;3.702;2022-08-14T04:59:37;26.70;41.80
36690;DHT22;22676;51.120;3.702;2022-08-14T05:02:29;26.70;41.70
36690;DHT22;22676;51.120;3.702;2022-08-14T05:05:33;26.60;41.60
36690;DHT22;22676;51.120;3.702;2022-08-14T05:08:24;26.60;41.60
36690;DHT22;22676;51.120;3.702;2022-08-14T05:11:14;26.60;41.70
36690;DHT22;22676;51.120;3.702;2022-08-14T05:14:05;26.60;41.70
36690;DHT22;22676;51.120;3.702;2022-08-14T05:16:55;26.60;41.70
36690;DHT22;22676;51.120;3.702;2022-08-14T05:19:45;26.60;41.70
36690;DHT22;22676;51.120;3.702;2022-08-14T05:22:36;26.60;41.70
36690;DHT22;22676;51.120;3.702;2022-08-14T05:25:27;26.60;42.30
36690;DHT22;22676;51.120;3.702;2022-08-14T05:28:18;26.60;41.80
36690;DHT22;22676;51.120;3.702;2022-08-14T05:37:27;26.50;41.80
36690;DHT22;22676;51.120;3.702;2022-08-14T05:40:17;26.50;41.80
36690;DHT22;22676;51.120;3.702;2022-08-14T05:43:09;26.60;41.90
36690;DHT22;22676;51.120;3.702;2022-08-14T05:45:59;26.60;41.80
36690;DHT22;22676;51.120;3.702;2022-08-14T05:48:51;26.60;41.90
36690;DHT22;22676;51.120;3.702;2022-08-14T05:51:42;26.60;41.90
36690;DHT22;22676;51.120;3.702;2022-08-14T05:54:34;26.50;41.80
36690;DHT22;22676;51.120;3.702;2022-08-14T05:57:24;26.60;41.90
36690;DHT22;22676;51.120;3.702;2022-08-14T06:00:16;26.60;41.90
36690;DHT22;22676;51.120;3.702;2022-08-14T06:03:09;26.50;41.80
36690;DHT22;22676;51.120;3.702;2022-08-14T07:29:56;27.10;41.20
36690;DHT22;22676;51.120;3.702;2022-08-14T07:32:48;27.20;41.10
36690;DHT22;22676;51.120;3.702;2022-08-14T07:35:39;27.20;41.00
36690;DHT22;22676;51.120;3.702;2022-08-14T07:38:30;27.20;40.80
36690;DHT22;22676;51.120;3.702;2022-08-14T07:41:20;27.30;40.80
36690;DHT22;22676;51.120;3.702;2022-08-14T07:44:11;27.40;40.50
36690;DHT22;22676;51.120;3.702;2022-08-14T07:47:03;27.40;40.40
36690;DHT22;22676;51.120;3.702;2022-08-14T07:52:47;27.50;40.10
36690;DHT22;22676;51.120;3.702;2022-08-14T07:55:40;27.50;40.10
36690;DHT22;22676;51.120;3.702;2022-08-14T07:58:30;27.50;40.00
36690;DHT22;22676;51.120;3.702;2022-08-14T08:01:22;27.60;40.00
36690;DHT22;22676;51.120;3.702;2022-08-14T09:37:59;28.10;40.60
36690;DHT22;22676;51.120;3.702;2022-08-14T09:46:38;28.20;40.30
36690;DHT22;22676;51.120;3.702;2022-08-14T09:49:29;28.20;40.20
36690;DHT22;22676;51.120;3.702;2022-08-14T09:52:20;28.20;40.20
36690;DHT22;22676;51.120;3.702;2022-08-14T09:55:15;28.20;40.30
36690;DHT22;22676;51.120;3.702;2022-08-14T09:58:15;28.20;40.30
36690;DHT22;22676;51.120;3.702;2022-08-14T10:01:07;28.20;40.40
36690;DHT22;22676;51.120;3.702;2022-08-14T10:04:17;28.30;40.80
36690;DHT22;22676;51.120;3.702;2022-08-14T10:07:08;28.30;40.90
36690;DHT22;22676;51.120;3.702;2022-08-14T10:09:59;28.30;41.00
36690;DHT22;22676;51.120;3.702;2022-08-14T10:12:49;28.30;41.30
36690;DHT22;22676;51.120;3.702;2022-08-14T10:15:44;28.30;41.30
36690;DHT22;22676;51.120;3.702;2022-08-14T10:18:34;28.30;41.60
36690;DHT22;22676;51.120;3.702;2022-08-14T10:21:26;28.30;41.70
36690;DHT22;22676;51.120;3.702;2022-08-14T10:24:23;28.30;42.00
36690;DHT22;22676;51.120;3.702;2022-08-14T10:27:16;28.30;42.30
36690;DHT22;22676;51.120;3.702;2022-08-14T10:30:14;28.30;42.50
36690;DHT22;22676;51.120;3.702;2022-08-14T10:33:06;28.30;42.70
36690;DHT22;22676;51.120;3.702;2022-08-14T11:24:49;28.50;43.10
36690;DHT22;22676;51.120;3.702;2022-08-14T11:27:42;28.50;43.10
36690;DHT22;22676;51.120;3.702;2022-08-14T11:30:33;28.60;43.10
36690;DHT22;22676;51.120;3.702;2022-08-14T11:33:24;28.50;43.00
36690;DHT22;22676;51.120;3.702;2022-08-14T11:36:15;28.50;43.00
36690;DHT22;22676;51.120;3.702;2022-08-14T11:39:06;28.50;43.10
36690;DHT22;22676;51.120;3.702;2022-08-14T11:41:56;28.50;42.90
36690;DHT22;22676;51.120;3.702;2022-08-14T11:44:48;28.60;42.90
36690;DHT22;22676;51.120;3.702;2022-08-14T11:47:39;28.60;42.80
36690;DHT22;22676;51.120;3.702;2022-08-14T11:50:31;28.50;42.60
36690;DHT22;22676;51.120;3.702;2022-08-14T11:53:26;28.60;42.60
36690;DHT22;22676;51.120;3.702;2022-08-14T11:56:17;28.60;42.40
36690;DHT22;22676;51.120;3.702;2022-08-14T11:59:13;28.60;42.30
36690;DHT22;22676;51.120;3.702;2022-08-14T12:02:11;28.70;42.20
36690;DHT22;22676;51.120;3.702;2022-08-14T12:06:01;28.70;41.90
36690;DHT22;22676;51.120;3.702;2022-08-14T12:08:39;28.70;41.70
36690;DHT22;22676;51.120;3.702;2022-08-14T12:11:36;28.70;41.50
36690;DHT22;22676;51.120;3.702;2022-08-14T12:14:28;28.70;41.20
36690;DHT22;22676;51.120;3.702;2022-08-14T12:17:19;28.70;41.00
36690;DHT22;22676;51.120;3.702;2022-08-14T12:20:10;28.70;40.70
36690;DHT22;22676;51.120;3.702;2022-08-14T12:23:01;28.80;40.60
36690;DHT22;22676;51.120;3.702;2022-08-14T12:26:03;28.80;40.40
36690;DHT22;22676;51.120;3.702;2022-08-14T12:29:04;28.80;40.20
36690;DHT22;22676;51.120;3.702;2022-08-14T12:31:56;28.80;40.10
36690;DHT22;22676;51.120;3.702;2022-08-14T12:34:50;28.80;40.00
36690;DHT22;22676;51.120;3.702;2022-08-14T12:37:48;28.80;39.90
36690;DHT22;22676;51.120;3.702;2022-08-14T12:40:49;28.80;39.90
36690;DHT22;22676;51.120;3.702;2022-08-14T12:43:43;28.70;39.80
36690;DHT22;22676;51.120;3.702;2022-08-14T12:49:25;28.70;40.00
36690;DHT22;22676;51.120;3.702;2022-08-14T12:52:16;28.80;40.10
36690;DHT22;22676;51.120;3.702;2022-08-14T12:55:17;28.70;40.00
36690;DHT22;22676;51.120;3.702;2022-08-14T12:58:09;28.80;40.50
36690;DHT22;22676;51.120;3.702;2022-08-14T13:01:00;28.80;40.70
36690;DHT22;22676;51.120;3.702;2022-08-14T13:42:02;28.90;41.20
36690;DHT22;22676;51.120;3.702;2022-08-14T13:44:54;28.90;41.30
36690;DHT22;22676;51.120;3.702;2022-08-14T13:47:45;29.00;41.30
36690;DHT22;22676;51.120;3.702;2022-08-14T13:50:36;29.00;41.20
36690;DHT22;22676;51.120;3.702;2022-08-14T13:53:29;29.00;41.20
36690;DHT22;22676;51.120;3.702;2022-08-14T13:56:22;29.00;41.30
36690;DHT22;22676;51.120;3.702;2022-08-14T13:59:17;29.00;41.40
36690;DHT22;22676;51.120;3.702;2022-08-14T14:02:07;29.00;41.50
36690;DHT22;22676;51.120;3.702;2022-08-14T15:37:37;29.40;42.10
36690;DHT22;22676;51.120;3.702;2022-08-14T15:40:28;29.50;42.50
36690;DHT22;22676;51.120;3.702;2022-08-14T15:43:18;29.50;42.50
36690;DHT22;22676;51.120;3.702;2022-08-14T15:46:09;29.50;42.60
36690;DHT22;22676;51.120;3.702;2022-08-14T15:48:34;29.50;42.50
36690;DHT22;22676;51.120;3.702;2022-08-14T15:51:40;29.50;42.50
36690;DHT22;22676;51.120;3.702;2022-08-14T15:54:21;29.50;42.60
36690;DHT22;22676;51.120;3.702;2022-08-14T18:20:40;29.80;43.30
36690;DHT22;22676;51.120;3.702;2022-08-14T18:23:31;29.80;43.30
36690;DHT22;22676;51.120;3.702;2022-08-14T18:26:25;29.80;43.30
36690;DHT22;22676;51.120;3.702;2022-08-14T18:29:18;29.80;43.30
36690;DHT22;22676;51.120;3.702;2022-08-14T18:32:43;29.80;43.30
36690;DHT22;22676;51.120;3.702;2022-08-14T18:35:46;29.80;43.90
36690;DHT22;22676;51.120;3.702;2022-08-14T18:38:37;29.80;43.40
36690;DHT22;22676;51.120;3.702;2022-08-14T18:41:28;29.80;43.30
36690;DHT22;22676;51.120;3.702;2022-08-14T18:47:36;29.80;43.40
36690;DHT22;22676;51.120;3.702;2022-08-14T18:50:27;29.80;43.40
36690;DHT22;22676;51.120;3.702;2022-08-14T18:53:18;29.70;43.40
36690;DHT22;22676;51.120;3.702;2022-08-14T18:56:09;29.70;43.40
36690;DHT22;22676;51.120;3.702;2022-08-14T18:58:59;29.70;43.40
36690;DHT22;22676;51.120;3.702;2022-08-14T19:01:49;29.70;43.40
36690;DHT22;22676;51.120;3.702;2022-08-14T19:04:40;29.70;43.40
36690;DHT22;22676;51.120;3.702;2022-08-14T19:07:31;29.70;43.40
36690;DHT22;22676;51.120;3.702;2022-08-14T19:10:29;29.80;43.40
36690;DHT22;22676;51.120;3.702;2022-08-14T19:16:18;29.70;43.40
36690;DHT22;22676;51.120;3.702;2022-08-14T21:28:46;28.80;40.20
36690;DHT22;22676;51.120;3.702;2022-08-14T21:31:37;28.80;40.50
36690;DHT22;22676;51.120;3.702;2022-08-14T21:34:28;28.70;40.60
36690;DHT22;22676;51.120;3.702;2022-08-14T21:37:18;28.70;40.40
36690;DHT22;22676;51.120;3.702;2022-08-14T21:40:10;28.70;40.20
36690;DHT22;22676;51.120;3.702;2022-08-14T21:43:00;28.70;40.10
36690;DHT22;22676;51.120;3.702;2022-08-14T21:45:52;28.70;40.20
36690;DHT22;22676;51.120;3.702;2022-08-14T22:45:04;28.70;39.30
36690;DHT22;22676;51.120;3.702;2022-08-14T22:48:09;28.70;39.30
36690;DHT22;22676;51.120;3.702;2022-08-14T22:51:00;28.70;39.50
36690;DHT22;22676;51.120;3.702;2022-08-14T22:53:52;28.70;39.50
36690;DHT22;22676;51.120;3.702;2022-08-14T22:56:43;28.70;39.60
36690;DHT22;22676;51.120;3.702;2022-08-14T22:59:34;28.70;39.50
36690;DHT22;22676;51.120;3.702;2022-08-14T23:02:27;28.70;39.50
36690;DHT22;22676;51.120;3.702;2022-08-14T23:05:19;28.70;39.60
36690;DHT22;22676;51.120;3.702;2022-08-14T23:08:10;28.70;39.60
36690;DHT22;22676;51.120;3.702;2022-08-14T23:11:02;28.70;39.50
36690;DHT22;22676;51.120;3.702;2022-08-14T23:13:52;28.70;39.60
36690;DHT22;22676;51.120;3.702;2022-08-14T23:16:43;28.70;39.70
36690;DHT22;22676;51.120;3.702;2022-08-14T23:19:34;28.60;39.60
36690;DHT22;22676;51.120;3.702;2022-08-14T23:22:25;28.70;39.50
36690;DHT22;22676;51.120;3.702;2022-08-14T23:25:16;28.70;39.50
36690;DHT22;22676;51.120;3.702;2022-08-14T23:28:07;28.70;39.50
36690;DHT22;22676;51.120;3.702;2022-08-14T23:30:59;28.60;39.50
36690;DHT22;22676;51.120;3.702;2022-08-14T23:33:50;28.60;39.50
36690;DHT22;22676;51.120;3.702;2022-08-14T23:36:42;28.60;39.50
36690;DHT22;22676;51.120;3.702;2022-08-14T23:39:33;28.70;39.60
36690;DHT22;22676;51.120;3.702;2022-08-14T23:45:39;28.60;39.50
36690;DHT22;22676;51.120;3.702;2022-08-14T23:48:45;28.60;39.60
36690;DHT22;22676;51.120;3.702;2022-08-14T23:51:36;28.60;39.60
36690;DHT22;22676;51.120;3.702;2022-08-14T23:54:27;28.60;39.60
36690;DHT22;22676;51.120;3.702;2022-08-14T23:57:18;28.60;39.70
